Time;durP1;ratioP1;P1;durP2;ratioP2;P2;SDS_P1;SDS_P2;PMS_P1;PMS_P2;Temp;Humidity;BMP_temperature;BMP_pressure;BME280_temperature;BME280_humidity;BME280_pressure;Samples;Min_cycle;Max_cycle;Signal;HPM_P1;HPM_P2
2024/01/03 00:02:56;;;;;;;19.63;13.13;;;;;;;7.29;100.00;97845.75;10443115;28;20427;-80
2024/01/03 00:07:57;;;;;;;15.90;14.50;;;;;;;7.21;100.00;97827.31;10474216;28;20045;-83
2024/01/03 00:12:58;;;;;;;13.40;12.50;;;;;;;7.13;100.00;97812.44;10409395;28;20564;-89
2024/01/03 00:17:58;;;;;;;13.52;12.38;;;;;;;7.13;100.00;97820.66;10452247;28;20080;-79
2024/01/03 00:23:08;;;;;;;14.20;12.80;;;;;;;7.11;100.00;97800.16;10455774;28;20049;-89
2024/01/03 00:28:08;;;;;;;16.00;12.18;;;;;;;7.22;100.00;97827.00;10455698;28;20041;-78
2024/01/03 00:33:09;;;;;;;14.05;12.80;;;;;;;7.17;100.00;97818.09;10438619;28;20057;-83
2024/01/03 00:38:10;;;;;;;13.98;12.98;;;;;;;7.18;100.00;97836.16;10473569;28;20044;-81
2024/01/03 00:43:10;;;;;;;17.00;15.52;;;;;;;7.13;100.00;97841.72;10438637;28;20037;-82
2024/01/03 00:48:11;;;;;;;16.15;14.80;;;;;;;7.07;100.00;97833.63;10440517;28;20044;-85
2024/01/03 00:53:12;;;;;;;18.35;16.58;;;;;;;7.05;100.00;97860.47;10422582;28;20310;-79
2024/01/03 00:58:13;;;;;;;16.52;14.90;;;;;;;6.90;100.00;97838.88;10411930;28;20444;-79
2024/01/03 01:03:13;;;;;;;16.85;15.45;;;;;;;6.89;100.00;97875.56;10419699;28;20057;-78
2024/01/03 01:08:13;;;;;;;17.58;16.20;;;;;;;6.91;100.00;97861.59;10433346;28;20049;-82
2024/01/03 01:13:14;;;;;;;18.38;16.95;;;;;;;6.84;100.00;97871.03;10428595;28;20104;-82
2024/01/03 01:18:14;;;;;;;18.33;16.00;;;;;;;6.86;100.00;97881.63;10432382;28;20086;-84
2024/01/03 01:23:15;;;;;;;22.00;20.10;;;;;;;6.78;100.00;97876.88;10473100;28;20515;-81
2024/01/03 01:28:15;;;;;;;18.52;17.15;;;;;;;6.85;100.00;97908.19;10440459;28;20573;-79
2024/01/03 01:33:16;;;;;;;21.20;19.05;;;;;;;6.80;100.00;97915.66;10429928;28;20037;-83
2024/01/03 01:38:16;;;;;;;23.38;21.30;;;;;;;6.74;100.00;97900.47;10423211;28;20044;-84
2024/01/03 01:43:17;;;;;;;23.35;21.05;;;;;;;6.75;100.00;97907.56;10457892;28;20067;-83
2024/01/03 01:48:17;;;;;;;22.58;20.75;;;;;;;6.65;100.00;97894.88;10458575;28;20041;-79
2024/01/03 01:53:18;;;;;;;21.65;19.40;;;;;;;6.78;100.00;97920.63;10440217;28;20056;-81
2024/01/03 01:58:18;;;;;;;20.42;16.58;;;;;;;6.81;100.00;97918.09;10423392;28;20041;-81
2024/01/03 02:03:19;;;;;;;18.13;16.77;;;;;;;6.89;100.00;97919.31;10438881;28;20834;-78
2024/01/03 02:08:19;;;;;;;20.20;18.80;;;;;;;6.87;100.00;97932.50;10470799;28;20091;-78
2024/01/03 02:13:20;;;;;;;16.60;15.02;;;;;;;6.96;100.00;97936.13;10438642;28;20048;-78
2024/01/03 02:18:20;;;;;;;20.05;18.65;;;;;;;6.96;100.00;97979.09;10454237;28;20048;-79
2024/01/03 02:23:22;;;;;;;21.33;19.30;;;;;;;6.88;100.00;97958.72;10427022;28;20045;-77
2024/01/03 02:28:23;;;;;;;16.60;15.10;;;;;;;7.07;100.00;97977.81;10465158;28;20037;-78
2024/01/03 02:33:24;;;;;;;15.98;14.60;;;;;;;7.03;100.00;97969.38;10445608;28;20430;-77
2024/01/03 02:38:24;;;;;;;15.10;13.73;;;;;;;7.13;100.00;97982.06;10461956;28;20054;-78
2024/01/03 02:43:25;;;;;;;15.63;14.00;;;;;;;7.10;100.00;97974.44;10444316;28;20037;-74
2024/01/03 02:48:25;;;;;;;15.52;14.23;;;;;;;7.12;100.00;98007.00;10462227;28;20033;-80
2024/01/03 02:53:26;;;;;;;13.70;12.60;;;;;;;7.22;100.00;98032.22;10455227;28;20052;-79
2024/01/03 02:58:26;;;;;;;13.95;9.60;;;;;;;7.30;100.00;98028.00;10462448;28;20044;-77
2024/01/03 03:03:27;;;;;;;12.82;11.00;;;;;;;7.28;100.00;98039.22;10441452;28;20037;-78
2024/01/03 03:08:27;;;;;;;9.63;8.68;;;;;;;7.26;100.00;98038.72;10457118;28;20045;-76
2024/01/03 03:13:29;;;;;;;11.82;6.38;;;;;;;7.47;100.00;98082.94;10462211;28;20061;-79
2024/01/03 03:18:29;;;;;;;10.93;6.20;;;;;;;7.53;100.00;98066.44;10415569;28;20040;-76
2024/01/03 03:23:30;;;;;;;7.22;5.00;;;;;;;7.54;100.00;98070.78;10452780;28;20072;-76
2024/01/03 03:28:30;;;;;;;16.52;5.00;;;;;;;7.81;100.00;98070.81;10459887;28;20086;-76
2024/01/03 03:33:32;;;;;;;13.82;5.03;;;;;;;7.86;100.00;98078.91;10420189;28;20048;-75
2024/01/03 03:38:35;;;;;;;11.55;5.55;;;;;;;7.79;100.00;98086.72;10462114;28;20041;-76
2024/01/03 03:43:35;;;;;;;10.93;4.30;;;;;;;7.89;100.00;98093.91;10462581;28;20123;-77
2024/01/03 03:48:36;;;;;;;5.57;4.60;;;;;;;7.85;100.00;98101.94;10460015;28;20029;-75
2024/01/03 03:53:37;;;;;;;7.80;4.13;;;;;;;7.88;100.00;98114.22;10439549;28;20061;-75
2024/01/03 03:58:37;;;;;;;5.97;3.72;;;;;;;7.89;100.00;98122.09;10439127;28;20033;-73
2024/01/03 04:03:38;;;;;;;7.28;4.40;;;;;;;7.92;100.00;98130.84;10436085;28;20041;-74
2024/01/03 04:08:42;;;;;;;7.32;4.97;;;;;;;7.84;100.00;98141.41;10443441;28;20059;-76
2024/01/03 04:13:43;;;;;;;5.72;5.20;;;;;;;7.85;100.00;98150.41;10450471;28;20032;-76
2024/01/03 04:18:45;;;;;;;22.38;7.80;;;;;;;7.68;100.00;98181.94;10459660;28;20040;-75
2024/01/03 04:23:45;;;;;;;8.35;6.70;;;;;;;7.55;100.00;98173.72;10441353;28;20067;-74
2024/01/03 04:28:46;;;;;;;10.18;9.43;;;;;;;7.10;100.00;98127.66;10460179;28;20084;-77
2024/01/03 04:33:46;;;;;;;10.02;9.30;;;;;;;7.28;100.00;98191.69;10454451;28;20119;-77
2024/01/03 04:38:47;;;;;;;11.05;10.23;;;;;;;7.25;100.00;98184.84;10459039;28;20134;-74
2024/01/03 04:43:47;;;;;;;14.60;10.02;;;;;;;7.22;100.00;98196.41;10458285;28;20049;-76
2024/01/03 04:48:48;;;;;;;10.18;9.38;;;;;;;7.29;100.00;98237.06;10441410;28;20045;-76
2024/01/03 04:53:48;;;;;;;9.50;8.90;;;;;;;7.35;100.00;98214.00;10409062;28;20048;-77
2024/01/03 04:58:49;;;;;;;8.27;7.78;;;;;;;7.27;100.00;98217.41;10457896;28;20048;-80
2024/01/03 05:03:49;;;;;;;10.75;10.10;;;;;;;7.28;100.00;98227.25;10423028;28;20044;-79
2024/01/03 05:08:50;;;;;;;12.43;11.38;;;;;;;6.65;100.00;98122.59;10456537;28;20044;-80
2024/01/03 05:13:50;;;;;;;10.25;9.60;;;;;;;7.35;100.00;98224.94;10440012;28;20121;-82
2024/01/03 05:18:51;;;;;;;10.60;10.07;;;;;;;7.37;100.00;98250.09;10454066;28;20041;-81
2024/01/03 05:23:51;;;;;;;16.23;15.32;;;;;;;7.44;100.00;98231.38;10439820;28;20052;-77
2024/01/03 05:28:52;;;;;;;16.60;15.38;;;;;;;7.38;100.00;98268.16;10455842;28;20029;-80
2024/01/03 05:33:52;;;;;;;17.90;16.85;;;;;;;7.40;100.00;98252.25;10421985;28;20075;-80
2024/01/03 05:38:53;;;;;;;19.13;17.73;;;;;;;7.38;100.00;98265.41;10440107;28;20033;-84
2024/01/03 05:43:54;;;;;;;19.27;17.90;;;;;;;7.29;100.00;98261.72;10470638;28;20052;-82
2024/01/03 05:48:54;;;;;;;21.73;20.27;;;;;;;7.34;100.00;98272.59;10432721;28;20060;-78
2024/01/03 05:53:55;;;;;;;22.58;20.77;;;;;;;7.30;100.00;98257.88;10453930;28;20052;-82
2024/01/03 05:58:55;;;;;;;23.90;16.88;;;;;;;7.43;100.00;98259.84;10456490;28;20052;-82
2024/01/03 06:03:56;;;;;;;19.23;14.60;;;;;;;7.65;100.00;98286.63;10437932;28;20064;-85
2024/01/03 06:08:56;;;;;;;12.88;10.63;;;;;;;7.79;100.00;98292.16;10438755;28;20091;-79
2024/01/03 06:13:57;;;;;;;18.00;8.68;;;;;;;7.83;100.00;98301.41;10421106;28;20051;-80
2024/01/03 06:18:57;;;;;;;14.02;10.30;;;;;;;7.82;100.00;98302.50;10472352;28;20056;-82
2024/01/03 06:23:58;;;;;;;18.20;10.93;;;;;;;7.78;100.00;98328.84;10457489;28;20083;-81
2024/01/03 06:28:58;;;;;;;17.38;10.35;;;;;;;7.69;100.00;98341.59;10438357;28;20045;-79
2024/01/03 06:33:59;;;;;;;24.45;11.82;;;;;;;7.64;100.00;98328.78;10438239;28;20037;-86
2024/01/03 06:38:59;;;;;;;19.75;11.30;;;;;;;7.67;100.00;98343.84;10452231;28;20048;-83
2024/01/03 06:44:00;;;;;;;20.83;12.57;;;;;;;7.55;100.00;98346.22;10452881;28;20040;-82
2024/01/03 06:49:00;;;;;;;9.70;7.82;;;;;;;7.55;100.00;98346.22;10425636;28;20527;-81
2024/01/03 06:54:01;;;;;;;15.90;9.15;;;;;;;7.77;100.00;98359.28;10438398;28;20045;-85
2024/01/03 06:59:01;;;;;;;18.25;8.95;;;;;;;7.68;100.00;98368.16;10420622;28;20045;-79
2024/01/03 07:04:03;;;;;;;14.57;10.93;;;;;;;7.77;100.00;98397.63;10423530;28;20041;-79
2024/01/03 07:09:03;;;;;;;18.35;16.65;;;;;;;7.61;100.00;98408.00;10456143;28;20083;-82
2024/01/03 07:14:05;;;;;;;20.33;18.35;;;;;;;7.44;100.00;98398.38;10428949;28;20547;-80
2024/01/03 07:19:05;;;;;;;27.73;18.90;;;;;;;7.43;100.00;98393.97;10429002;28;20420;-79
2024/01/03 07:24:06;;;;;;;13.25;11.88;;;;;;;7.46;100.00;98420.78;10432549;28;20053;-82
2024/01/03 07:29:06;;;;;;;10.25;9.18;;;;;;;7.56;100.00;98410.78;10438773;28;20033;-84
2024/01/03 07:34:07;;;;;;;10.43;7.53;;;;;;;7.52;100.00;98407.81;10442439;28;20075;-84
2024/01/03 07:39:09;;;;;;;12.23;7.07;;;;;;;7.62;100.00;98418.63;10437816;28;20037;-84
2024/01/03 07:44:09;;;;;;;15.82;6.05;;;;;;;7.68;100.00;98416.66;10423617;28;20049;-85
2024/01/03 07:49:10;;;;;;;9.85;4.45;;;;;;;7.87;100.00;98433.91;10477023;28;20043;-84
2024/01/03 07:54:12;;;;;;;5.43;4.50;;;;;;;7.96;100.00;98436.78;10458995;28;20056;-82
2024/01/03 07:59:12;;;;;;;11.38;4.85;;;;;;;8.00;100.00;98443.31;10442054;28;20037;-85
2024/01/03 08:04:13;;;;;;;11.13;5.20;;;;;;;8.07;100.00;98445.66;10434894;28;20048;-81
2024/01/03 08:09:14;;;;;;;13.02;5.57;;;;;;;8.18;100.00;98455.34;10443488;28;20527;-83
2024/01/03 08:14:14;;;;;;;13.07;6.18;;;;;;;8.18;100.00;98451.81;10443022;28;20044;-84
2024/01/03 08:19:15;;;;;;;12.10;6.40;;;;;;;8.15;100.00;98450.47;10442585;28;20067;-82
2024/01/03 08:24:15;;;;;;;17.55;6.43;;;;;;;8.16;100.00;98468.53;10458734;28;20492;-83
2024/01/03 08:29:16;;;;;;;15.98;7.35;;;;;;;8.15;100.00;98480.63;10473756;28;20044;-83
2024/01/03 08:34:16;;;;;;;27.95;9.00;;;;;;;8.12;100.00;98472.19;10472208;28;20089;-83
2024/01/03 08:39:17;;;;;;;13.55;6.47;;;;;;;8.12;100.00;98478.47;10456314;28;20056;-81
2024/01/03 08:44:17;;;;;;;13.15;6.82;;;;;;;8.21;100.00;98504.09;10457735;28;20056;-81
2024/01/03 08:49:18;;;;;;;12.52;7.75;;;;;;;8.10;100.00;98488.91;10423134;28;20040;-84
2024/01/03 08:54:18;;;;;;;21.58;10.85;;;;;;;7.93;100.00;98488.63;10458205;28;20072;-81
2024/01/03 08:59:19;;;;;;;23.60;12.27;;;;;;;7.84;100.00;98497.50;10438934;28;20048;-81
2024/01/03 09:04:19;;;;;;;20.55;13.18;;;;;;;7.70;100.00;98507.53;10454969;28;20054;-79
2024/01/03 09:09:20;;;;;;;20.23;17.52;;;;;;;7.64;100.00;98504.03;10440314;28;20403;-77
2024/01/03 09:14:20;;;;;;;26.45;21.77;;;;;;;7.60;100.00;98513.94;10440812;28;20076;-81
2024/01/03 09:19:21;;;;;;;23.80;21.77;;;;;;;7.35;100.00;98484.97;10437885;28;20056;-80
2024/01/03 09:24:21;;;;;;;25.85;22.58;;;;;;;7.46;100.00;98519.34;10438022;28;20524;-81
2024/01/03 09:29:22;;;;;;;22.52;20.27;;;;;;;7.52;100.00;98538.44;10455186;28;20041;-81
2024/01/03 09:34:22;;;;;;;18.33;15.90;;;;;;;7.57;100.00;98536.47;10436370;28;20033;-81
2024/01/03 09:39:23;;;;;;;15.75;13.45;;;;;;;7.57;100.00;98525.50;10421602;28;20037;-79
2024/01/03 09:44:24;;;;;;;20.25;14.38;;;;;;;7.69;100.00;98527.84;10418637;28;20057;-81
2024/01/03 09:49:25;;;;;;;12.95;11.02;;;;;;;7.71;100.00;98533.84;10421380;28;20068;-81
2024/01/03 09:54:25;;;;;;;13.25;11.15;;;;;;;7.78;100.00;98523.31;10420783;28;20045;-82
2024/01/03 09:59:26;;;;;;;12.75;8.35;;;;;;;7.81;100.00;98530.97;10451391;28;20037;-81
2024/01/03 10:04:27;;;;;;;11.70;7.53;;;;;;;7.97;100.00;98545.25;10434191;28;20067;-79
2024/01/03 10:09:40;;;;;;;6.85;5.95;;;;;;;7.98;100.00;98551.56;10419941;28;20124;-80
2024/01/03 10:14:40;;;;;;;8.98;4.72;;;;;;;8.09;100.00;98570.31;10453038;28;20036;-80
2024/01/03 10:19:41;;;;;;;12.80;5.93;;;;;;;8.14;100.00;98561.19;10470696;28;20037;-79
2024/01/03 10:24:46;;;;;;;10.63;6.30;;;;;;;8.21;100.00;98572.63;10452693;28;20100;-78
2024/01/03 10:29:46;;;;;;;11.02;5.00;;;;;;;8.20;100.00;98581.16;10437100;28;20033;-80
2024/01/03 10:34:47;;;;;;;10.40;4.82;;;;;;;8.13;100.00;98558.78;10434873;28;20041;-83
2024/01/03 10:39:47;;;;;;;9.57;4.93;;;;;;;8.27;100.00;98567.91;10434536;28;20037;-86
2024/01/03 10:44:48;;;;;;;13.43;4.50;;;;;;;8.37;100.00;98553.22;10458967;28;20068;-83
2024/01/03 10:49:48;;;;;;;9.38;4.85;;;;;;;8.51;100.00;98559.63;10428405;28;20041;-84
2024/01/03 10:54:50;;;;;;;13.70;3.80;;;;;;;8.77;100.00;98583.94;10460387;28;20052;-82
2024/01/03 10:59:55;;;;;;;9.00;3.17;;;;;;;8.86;100.00;98571.16;10427625;28;20040;-83
2024/01/03 11:05:00;;;;;;;7.22;3.25;;;;;;;9.00;100.00;98590.41;10440456;28;20052;-85
2024/01/03 11:10:01;;;;;;;10.35;3.10;;;;;;;9.01;100.00;98601.09;10425311;28;20091;-83
2024/01/03 11:15:21;;;;;;;12.82;3.85;;;;;;;8.87;100.00;98601.03;10442778;28;20130;-82
2024/01/03 11:20:30;;;;;;;6.97;3.30;;;;;;;8.81;100.00;98579.47;10457782;28;20040;-81
2024/01/03 11:25:49;;;;;;;6.82;2.72;;;;;;;9.02;100.00;98575.25;10457093;28;20056;-80
2024/01/03 11:30:49;;;;;;;11.43;3.20;;;;;;;8.88;100.00;98590.88;10473312;28;20037;-82
2024/01/03 11:35:50;;;;;;;8.18;2.88;;;;;;;8.77;100.00;98592.16;10458950;28;20037;-82
2024/01/03 11:40:50;;;;;;;7.32;3.20;;;;;;;8.67;100.00;98588.44;10456429;28;20041;-82
2024/01/03 11:45:51;;;;;;;20.75;7.03;;;;;;;8.67;100.00;98599.41;10443164;28;20045;-81
2024/01/03 11:50:51;;;;;;;21.23;6.88;;;;;;;8.49;100.00;98589.25;10443044;28;20095;-84
2024/01/03 11:55:52;;;;;;;15.13;5.97;;;;;;;8.48;100.00;98593.13;10459239;28;20040;-82
2024/01/03 12:00:52;;;;;;;12.23;5.88;;;;;;;8.38;100.00;98555.66;10459195;28;20041;-77
2024/01/03 12:05:53;;;;;;;21.48;6.78;;;;;;;8.55;100.00;98590.81;10417356;28;22287;-81
2024/01/03 12:10:54;;;;;;;13.43;5.28;;;;;;;8.67;100.00;98582.16;10459043;28;20033;-82
2024/01/03 12:16:00;;;;;;;15.00;4.30;;;;;;;9.04;100.00;98580.47;10456636;28;20041;-81
2024/01/03 12:21:11;;;;;;;9.77;3.67;;;;;;;8.71;100.00;98513.78;10440869;28;20512;-80
2024/01/03 12:26:11;;;;;;;16.20;3.55;;;;;;;9.31;100.00;98576.16;10455689;28;20033;-80
2024/01/03 12:31:18;;;;;;;14.27;3.13;;;;;;;9.33;100.00;98530.00;10440032;28;20041;-80
2024/01/03 12:36:18;;;;;;;20.52;4.20;;;;;;;9.65;100.00;98553.78;10440080;28;20029;-81
2024/01/03 12:41:19;;;;;;;11.82;3.20;;;;;;;9.71;100.00;98563.56;10457254;28;20041;-80
2024/01/03 12:46:19;;;;;;;11.95;2.90;;;;;;;9.56;100.00;98555.63;10453857;28;20086;-79
2024/01/03 12:51:20;;;;;;;13.57;3.58;;;;;;;9.39;100.00;98567.22;10418437;28;20040;-78
2024/01/03 12:56:20;;;;;;;18.20;4.53;;;;;;;9.49;100.00;98584.31;10454852;28;20037;-80
2024/01/03 13:01:21;;;;;;;12.65;3.47;;;;;;;9.28;100.00;98583.03;10457863;28;20048;-79
2024/01/03 13:06:21;;;;;;;15.60;3.70;;;;;;;9.20;100.00;98594.72;10457395;28;20041;-75
2024/01/03 13:11:22;;;;;;;9.65;3.50;;;;;;;9.19;100.00;98582.94;10432370;28;20045;-80
2024/01/03 13:16:23;;;;;;;9.68;3.38;;;;;;;9.20;100.00;98594.72;10440541;28;20064;-78
2024/01/03 13:21:23;;;;;;;16.15;3.00;;;;;;;9.22;100.00;98595.22;10457044;28;20045;-80
2024/01/03 13:26:24;;;;;;;11.07;3.17;;;;;;;9.15;100.00;98600.31;10416873;28;20051;-77
2024/01/03 13:31:24;;;;;;;11.13;3.20;;;;;;;9.06;100.00;98603.75;10438189;28;20041;-79
2024/01/03 13:36:25;;;;;;;13.93;3.55;;;;;;;8.99;100.00;98592.34;10437761;28;20400;-79
2024/01/03 13:41:27;;;;;;;11.32;2.35;;;;;;;9.06;100.00;98598.25;10454792;28;20037;-79
2024/01/03 13:46:28;;;;;;;18.02;3.67;;;;;;;9.00;100.00;98607.69;10453825;28;20459;-80
2024/01/03 13:51:29;;;;;;;9.73;2.25;;;;;;;9.02;100.00;98602.72;10437787;28;20162;-79
2024/01/03 13:56:29;;;;;;;21.40;2.35;;;;;;;8.96;100.00;98609.41;10455883;28;20037;-76
2024/01/03 14:01:29;;;;;;;10.80;2.92;;;;;;;8.91;100.00;98604.00;10457248;28;20416;-79
2024/01/03 14:06:30;;;;;;;8.20;2.47;;;;;;;8.88;100.00;98613.63;10422314;28;20547;-80
2024/01/03 14:11:32;;;;;;;10.50;2.85;;;;;;;8.89;100.00;98620.75;10454276;28;20041;-80
2024/01/03 14:16:33;;;;;;;15.20;2.47;;;;;;;8.94;100.00;98617.13;10438797;28;20033;-80
2024/01/03 14:21:33;;;;;;;11.60;1.95;;;;;;;8.83;100.00;98604.69;10463611;28;20044;-81
2024/01/03 14:26:34;;;;;;;15.30;2.78;;;;;;;8.93;100.00;98629.22;10463612;28;20044;-79
2024/01/03 14:31:35;;;;;;;12.23;1.90;;;;;;;8.93;100.00;98620.16;10446075;28;20045;-77
2024/01/03 14:36:35;;;;;;;9.98;2.33;;;;;;;8.76;100.00;98617.94;10464835;28;20087;-80
2024/01/03 14:41:36;;;;;;;14.70;2.88;;;;;;;8.78;100.00;98632.19;10445442;28;20069;-80
2024/01/03 14:46:37;;;;;;;15.25;2.40;;;;;;;8.62;100.00;98648.88;10446056;28;20045;-78
2024/01/03 14:51:38;;;;;;;13.05;2.03;;;;;;;8.35;100.00;98638.53;10462178;28;20139;-79
2024/01/03 14:56:40;;;;;;;7.07;3.03;;;;;;;8.07;100.00;98641.03;10429246;28;20067;-75
2024/01/03 15:01:44;;;;;;;5.35;1.95;;;;;;;7.82;100.00;98647.63;10462608;28;20041;-78
2024/01/03 15:06:57;;;;;;;7.60;1.98;;;;;;;7.50;100.00;98644.69;10459334;28;20401;-79
2024/01/03 15:11:58;;;;;;;6.97;2.88;;;;;;;7.51;100.00;98646.34;10418715;28;20044;-78
2024/01/03 15:16:58;;;;;;;10.07;2.75;;;;;;;7.60;100.00;98650.06;10425286;28;20045;-79
2024/01/03 15:22:07;;;;;;;11.23;4.05;;;;;;;7.54;100.00;98646.56;10442572;28;20068;-80
2024/01/03 15:27:09;;;;;;;8.77;3.13;;;;;;;7.43;100.00;98634.06;10442969;28;20033;-80
2024/01/03 15:32:09;;;;;;;9.20;2.88;;;;;;;7.53;100.00;98653.16;10440115;28;20033;-81
2024/01/03 15:37:10;;;;;;;6.95;2.65;;;;;;;7.57;100.00;98650.66;10407448;28;20655;-80
2024/01/03 15:42:12;;;;;;;8.00;3.20;;;;;;;7.65;100.00;98656.31;10439431;28;20040;-80
2024/01/03 15:47:14;;;;;;;11.27;3.38;;;;;;;7.72;100.00;98664.19;10424628;28;20425;-79
2024/01/03 15:52:15;;;;;;;16.58;4.05;;;;;;;7.64;100.00;98651.13;10439727;28;20061;-79
2024/01/03 15:57:16;;;;;;;9.98;3.13;;;;;;;7.64;100.00;98640.16;10424735;28;20045;-80
2024/01/03 16:02:16;;;;;;;6.90;3.10;;;;;;;7.66;100.00;98648.91;10440894;28;20045;-79
2024/01/03 16:07:16;;;;;;;3.97;2.70;;;;;;;7.57;100.00;98647.91;10456382;28;20048;-80
2024/01/03 16:12:17;;;;;;;9.50;3.78;;;;;;;7.45;100.00;98662.78;10455397;28;20049;-81
2024/01/03 16:17:18;;;;;;;11.70;2.90;;;;;;;7.39;100.00;98661.22;10439476;28;20052;-79
2024/01/03 16:22:18;;;;;;;8.70;2.92;;;;;;;7.25;100.00;98652.03;10440288;28;20044;-80
2024/01/03 16:27:19;;;;;;;7.18;3.40;;;;;;;6.93;100.00;98617.81;10439690;28;20045;-79
2024/01/03 16:32:23;;;;;;;6.07;3.42;;;;;;;7.13;100.00;98646.09;10426192;28;20075;-80
2024/01/03 16:37:23;;;;;;;8.38;3.72;;;;;;;7.18;100.00;98654.28;10472620;28;20044;-80
2024/01/03 16:42:24;;;;;;;6.95;3.58;;;;;;;7.22;100.00;98669.84;10435167;28;20100;-79
2024/01/03 16:47:24;;;;;;;8.85;4.55;;;;;;;7.25;100.00;98673.91;10422847;28;20061;-80
2024/01/03 16:52:25;;;;;;;9.93;3.92;;;;;;;7.25;100.00;98665.72;10439209;28;20033;-80
2024/01/03 16:57:25;;;;;;;21.10;5.75;;;;;;;7.14;100.00;98658.69;10457529;28;20033;-80
2024/01/03 17:02:27;;;;;;;10.07;5.10;;;;;;;7.12;100.00;98666.38;10438060;28;20045;-81
2024/01/03 17:07:28;;;;;;;7.93;3.97;;;;;;;7.13;100.00;98657.88;10436243;28;20096;-80
2024/01/03 17:12:30;;;;;;;10.25;4.47;;;;;;;7.28;100.00;98681.56;10421052;28;20059;-80
2024/01/03 17:17:31;;;;;;;14.35;4.20;;;;;;;7.24;100.00;98675.03;10408753;28;20484;-80
2024/01/03 17:22:31;;;;;;;8.93;4.13;;;;;;;7.38;100.00;98691.59;10437050;28;20108;-77
2024/01/03 17:27:33;;;;;;;15.55;4.75;;;;;;;7.27;100.00;98667.03;10415810;28;20037;-80
2024/01/03 17:32:33;;;;;;;11.88;5.03;;;;;;;7.36;100.00;98694.66;10421094;28;20033;-80
2024/01/03 17:37:34;;;;;;;11.57;3.80;;;;;;;7.36;100.00;98688.31;10418474;28;20041;-80
2024/01/03 17:42:35;;;;;;;16.13;4.80;;;;;;;7.35;100.00;98676.56;10418337;28;20096;-80
2024/01/03 17:47:36;;;;;;;11.20;5.40;;;;;;;7.39;100.00;98688.59;10430538;28;20041;-80
2024/01/03 17:52:37;;;;;;;11.00;4.75;;;;;;;7.36;100.00;98691.91;10437949;28;20513;-77
2024/01/03 17:57:37;;;;;;;8.23;4.65;;;;;;;7.26;100.00;98667.34;10420636;28;20045;-80
2024/01/03 18:02:39;;;;;;;11.20;5.50;;;;;;;7.46;100.00;98705.50;10421627;28;20068;-77
2024/01/03 18:07:39;;;;;;;10.43;6.25;;;;;;;7.46;100.00;98710.16;10437819;28;20063;-77
2024/01/03 18:12:40;;;;;;;15.35;7.32;;;;;;;7.37;100.00;98707.22;10454260;28;20044;-77
2024/01/03 18:17:41;;;;;;;9.85;6.38;;;;;;;7.34;100.00;98707.81;10425522;28;20104;-78
2024/01/03 18:22:48;;;;;;;10.90;6.50;;;;;;;7.32;100.00;98710.00;10454178;28;20069;-79
2024/01/03 18:27:49;;;;;;;7.60;6.30;;;;;;;7.24;100.00;98705.16;10435976;28;20096;-79
2024/01/03 18:32:55;;;;;;;11.50;6.63;;;;;;;7.06;100.00;98693.75;10433518;28;20133;-79
2024/01/03 18:37:56;;;;;;;15.45;6.30;;;;;;;7.18;100.00;98717.22;10450403;28;20038;-79
2024/01/03 18:42:58;;;;;;;10.75;6.30;;;;;;;7.06;100.00;98712.91;10437025;28;20072;-80
2024/01/03 18:48:00;;;;;;;13.32;6.95;;;;;;;7.08;100.00;98721.66;10453821;28;20051;-79
2024/01/03 18:53:00;;;;;;;16.58;7.32;;;;;;;7.05;100.00;98729.63;10420760;28;20114;-78
2024/01/03 18:58:01;;;;;;;11.82;7.30;;;;;;;7.10;100.00;98735.06;10420374;28;20056;-79
2024/01/03 19:03:03;;;;;;;18.05;8.00;;;;;;;7.03;100.00;98738.13;10454261;28;20440;-81
2024/01/03 19:08:03;;;;;;;16.52;9.55;;;;;;;7.06;100.00;98750.41;10460851;28;20037;-80
2024/01/03 19:13:06;;;;;;;18.70;8.30;;;;;;;7.08;100.00;98748.19;10443003;28;20485;-80
2024/01/03 19:18:07;;;;;;;14.13;7.20;;;;;;;7.09;100.00;98760.81;10443937;28;20045;-79
2024/01/03 19:23:07;;;;;;;17.00;8.10;;;;;;;7.12;100.00;98764.88;10420042;28;20041;-80
2024/01/03 19:28:09;;;;;;;24.95;10.13;;;;;;;7.12;100.00;98764.88;10436496;28;20041;-78
2024/01/03 19:33:09;;;;;;;19.15;8.48;;;;;;;6.95;100.00;98749.66;10429570;28;20044;-79
2024/01/03 19:38:11;;;;;;;11.80;6.50;;;;;;;6.92;100.00;98779.47;10462237;28;20029;-79
2024/01/03 19:43:12;;;;;;;10.13;5.95;;;;;;;6.84;100.00;98775.41;10459417;28;20098;-80
2024/01/03 19:48:12;;;;;;;10.68;5.72;;;;;;;6.66;100.00;98765.94;10425953;28;20041;-80
2024/01/03 19:53:13;;;;;;;15.35;7.05;;;;;;;6.75;100.00;98788.06;10435215;28;20041;-80
2024/01/03 19:58:15;;;;;;;14.25;5.35;;;;;;;6.69;100.00;98791.91;10418267;28;20058;-80
2024/01/03 20:03:15;;;;;;;10.77;5.45;;;;;;;6.65;100.00;98806.13;10453602;28;20037;-79
2024/01/03 20:08:16;;;;;;;10.57;5.13;;;;;;;6.63;100.00;98797.38;10455582;28;20037;-79
2024/01/03 20:13:17;;;;;;;12.45;5.13;;;;;;;6.61;100.00;98798.75;10458117;28;20056;-81
2024/01/03 20:18:17;;;;;;;11.43;5.90;;;;;;;6.60;100.00;98803.41;10456660;28;20141;-80
2024/01/03 20:23:18;;;;;;;16.73;5.00;;;;;;;6.62;100.00;98812.16;10451180;28;20044;-80
2024/01/03 20:28:18;;;;;;;15.90;6.07;;;;;;;6.67;100.00;98825.00;10457776;28;20040;-78
2024/01/03 20:33:19;;;;;;;9.38;5.32;;;;;;;6.53;100.00;98802.91;10432082;28;20056;-80
2024/01/03 20:38:19;;;;;;;8.40;4.82;;;;;;;6.57;100.00;98820.38;10425044;28;20065;-80
2024/01/03 20:43:20;;;;;;;9.48;5.55;;;;;;;6.61;100.00;98835.13;10408448;28;20044;-81
2024/01/03 20:48:21;;;;;;;8.68;5.57;;;;;;;6.46;100.00;98830.50;10422980;28;20040;-80
2024/01/03 20:53:22;;;;;;;9.90;5.53;;;;;;;6.36;100.00;98846.13;10440358;28;20037;-81
2024/01/03 20:58:22;;;;;;;7.65;5.38;;;;;;;6.50;100.00;98870.97;10440160;28;20048;-79
2024/01/03 21:03:23;;;;;;;9.15;4.45;;;;;;;6.46;100.00;98866.06;10439032;28;20053;-80
2024/01/03 21:08:23;;;;;;;5.10;4.13;;;;;;;6.50;100.00;98881.91;10440173;28;20033;-80
2024/01/03 21:13:24;;;;;;;6.95;4.20;;;;;;;6.12;100.00;98824.88;10422343;28;20075;-77
2024/01/03 21:18:24;;;;;;;8.80;4.63;;;;;;;6.54;100.00;98875.63;10472586;28;20029;-79
2024/01/03 21:23:25;;;;;;;7.75;4.82;;;;;;;6.51;100.00;98880.81;10456266;28;20049;-82
2024/01/03 21:28:26;;;;;;;7.13;4.00;;;;;;;6.38;100.00;98887.66;10419765;28;20059;-81
2024/01/03 21:33:26;;;;;;;4.43;3.13;;;;;;;6.41;100.00;98887.13;10437776;28;20079;-82
2024/01/03 21:38:27;;;;;;;5.65;3.60;;;;;;;6.31;100.00;98887.97;10448372;28;20045;-80
2024/01/03 21:43:28;;;;;;;6.15;3.30;;;;;;;6.36;100.00;98903.53;10421102;28;20527;-81
2024/01/03 21:48:28;;;;;;;4.47;3.08;;;;;;;6.35;100.00;98910.09;10454651;28;20041;-80
2024/01/03 21:53:29;;;;;;;6.60;3.20;;;;;;;6.38;100.00;98907.63;10422230;28;20029;-81
2024/01/03 21:58:29;;;;;;;7.25;4.32;;;;;;;6.34;100.00;98909.25;10454202;28;20036;-80
2024/01/03 22:03:30;;;;;;;5.88;3.58;;;;;;;6.31;100.00;98919.94;10434636;28;20083;-80
2024/01/03 22:08:30;;;;;;;8.50;4.55;;;;;;;6.39;100.00;98933.06;10421023;28;20037;-80
2024/01/03 22:13:31;;;;;;;8.13;3.92;;;;;;;6.18;100.00;98908.47;10438105;28;20834;-80
2024/01/03 22:18:31;;;;;;;10.75;4.05;;;;;;;6.22;100.00;98928.69;10442228;28;20064;-78
2024/01/03 22:23:32;;;;;;;7.05;3.20;;;;;;;6.25;100.00;98949.97;10470984;28;20116;-79
2024/01/03 22:28:33;;;;;;;5.45;3.40;;;;;;;6.22;100.00;98960.63;10414317;28;20069;-80
2024/01/03 22:33:33;;;;;;;8.35;2.20;;;;;;;6.21;100.00;98954.34;10430912;28;20198;-81
2024/01/03 22:38:34;;;;;;;7.45;2.80;;;;;;;6.12;100.00;98961.47;10448176;28;20064;-81
2024/01/03 22:43:35;;;;;;;8.27;1.92;;;;;;;6.11;100.00;98969.94;10443902;28;20060;-81
2024/01/03 22:48:35;;;;;;;5.35;2.17;;;;;;;6.11;100.00;98984.41;10427171;28;20033;-78
2024/01/03 22:53:36;;;;;;;7.82;2.15;;;;;;;5.92;100.00;98962.22;10445457;28;20045;-81
2024/01/03 22:58:36;;;;;;;5.03;1.67;;;;;;;6.04;100.00;98987.41;10410170;28;20037;-80
2024/01/03 23:03:37;;;;;;;4.07;1.52;;;;;;;5.99;100.00;99008.41;10426606;28;20041;-81